sensor_id;sensor_type;location;lat;lon;timestamp;temperature;humidity
60293;DHT22;52402;52.670;6.750;2023-10-31T00:01:31;11.60;99.90
60293;DHT22;52402;52.670;6.750;2023-10-31T00:03:56;11.70;99.90
60293;DHT22;52402;52.670;6.750;2023-10-31T00:06:22;11.70;99.90
60293;DHT22;52402;52.670;6.750;2023-10-31T00:08:48;11.70;99.90
60293;DHT22;52402;52.670;6.750;2023-10-31T00:11:13;11.70;99.90
60293;DHT22;52402;52.670;6.750;2023-10-31T00:13:39;11.70;99.90
60293;DHT22;52402;52.670;6.750;2023-10-31T00:16:05;11.70;99.90
60293;DHT22;52402;52.670;6.750;2023-10-31T00:18:30;11.70;99.90
60293;DHT22;52402;52.670;6.750;2023-10-31T00:20:56;11.70;99.90
60293;DHT22;52402;52.670;6.750;2023-10-31T00:23:22;11.70;99.90
60293;DHT22;52402;52.670;6.750;2023-10-31T00:25:48;11.70;99.90
60293;DHT22;52402;52.670;6.750;2023-10-31T00:28:14;11.70;99.90
60293;DHT22;52402;52.670;6.750;2023-10-31T00:30:39;11.70;99.90
60293;DHT22;52402;52.670;6.750;2023-10-31T00:33:05;11.70;99.90
60293;DHT22;52402;52.670;6.750;2023-10-31T00:35:30;11.70;99.90
60293;DHT22;52402;52.670;6.750;2023-10-31T00:37:56;11.70;99.90
60293;DHT22;52402;52.670;6.750;2023-10-31T00:40:22;11.70;99.90
60293;DHT22;52402;52.670;6.750;2023-10-31T00:42:47;11.70;99.90
60293;DHT22;52402;52.670;6.750;2023-10-31T00:45:13;11.70;99.90
60293;DHT22;52402;52.670;6.750;2023-10-31T00:47:39;11.70;99.90
60293;DHT22;52402;52.670;6.750;2023-10-31T00:50:04;11.70;99.90
60293;DHT22;52402;52.670;6.750;2023-10-31T00:52:30;11.70;99.90
60293;DHT22;52402;52.670;6.750;2023-10-31T00:54:56;11.70;99.90
60293;DHT22;52402;52.670;6.750;2023-10-31T00:57:21;11.80;99.90
60293;DHT22;52402;52.670;6.750;2023-10-31T00:59:47;11.80;99.90
60293;DHT22;52402;52.670;6.750;2023-10-31T01:02:13;11.80;99.90
60293;DHT22;52402;52.670;6.750;2023-10-31T01:04:42;11.80;99.90
60293;DHT22;52402;52.670;6.750;2023-10-31T01:07:08;11.80;99.90
60293;DHT22;52402;52.670;6.750;2023-10-31T01:09:37;11.80;99.90
60293;DHT22;52402;52.670;6.750;2023-10-31T01:12:05;11.80;99.90
60293;DHT22;52402;52.670;6.750;2023-10-31T01:14:30;11.80;99.90
60293;DHT22;52402;52.670;6.750;2023-10-31T01:16:56;11.80;99.90
60293;DHT22;52402;52.670;6.750;2023-10-31T01:19:25;11.80;99.90
60293;DHT22;52402;52.670;6.750;2023-10-31T01:21:50;11.80;99.90
60293;DHT22;52402;52.670;6.750;2023-10-31T01:24:16;11.80;99.90
60293;DHT22;52402;52.670;6.750;2023-10-31T01:26:41;11.80;99.90
60293;DHT22;52402;52.670;6.750;2023-10-31T01:29:07;11.80;99.90
60293;DHT22;52402;52.670;6.750;2023-10-31T01:31:32;11.80;99.90
60293;DHT22;52402;52.670;6.750;2023-10-31T01:33:59;11.80;99.90
60293;DHT22;52402;52.670;6.750;2023-10-31T01:36:26;11.80;99.90
60293;DHT22;52402;52.670;6.750;2023-10-31T01:38:52;11.80;99.90
60293;DHT22;52402;52.670;6.750;2023-10-31T01:41:17;11.80;99.90
60293;DHT22;52402;52.670;6.750;2023-10-31T01:43:43;11.80;99.90
60293;DHT22;52402;52.670;6.750;2023-10-31T01:46:09;11.70;99.90
60293;DHT22;52402;52.670;6.750;2023-10-31T01:48:34;11.50;99.90
60293;DHT22;52402;52.670;6.750;2023-10-31T01:51:02;11.30;99.90
60293;DHT22;52402;52.670;6.750;2023-10-31T01:53:31;11.20;99.90
60293;DHT22;52402;52.670;6.750;2023-10-31T01:55:59;11.00;99.90
60293;DHT22;52402;52.670;6.750;2023-10-31T01:58:36;10.90;99.90
60293;DHT22;52402;52.670;6.750;2023-10-31T02:01:02;10.80;99.90
60293;DHT22;52402;52.670;6.750;2023-10-31T02:03:28;10.70;99.90
60293;DHT22;52402;52.670;6.750;2023-10-31T02:05:55;10.70;99.90
60293;DHT22;52402;52.670;6.750;2023-10-31T02:08:30;10.60;99.90
60293;DHT22;52402;52.670;6.750;2023-10-31T02:10:55;10.50;99.90
60293;DHT22;52402;52.670;6.750;2023-10-31T02:13:21;10.50;99.90
60293;DHT22;52402;52.670;6.750;2023-10-31T02:15:47;10.40;99.90
60293;DHT22;52402;52.670;6.750;2023-10-31T02:18:13;10.30;99.90
60293;DHT22;52402;52.670;6.750;2023-10-31T02:20:38;10.20;99.90
60293;DHT22;52402;52.670;6.750;2023-10-31T02:23:05;10.10;99.90
60293;DHT22;52402;52.670;6.750;2023-10-31T02:25:30;10.10;99.90
60293;DHT22;52402;52.670;6.750;2023-10-31T02:27:56;10.00;99.90
60293;DHT22;52402;52.670;6.750;2023-10-31T02:30:22;10.00;99.90
60293;DHT22;52402;52.670;6.750;2023-10-31T02:32:48;10.00;99.90
60293;DHT22;52402;52.670;6.750;2023-10-31T02:35:16;9.90;99.90
60293;DHT22;52402;52.670;6.750;2023-10-31T02:37:43;9.90;99.90
60293;DHT22;52402;52.670;6.750;2023-10-31T02:40:09;9.90;99.90
60293;DHT22;52402;52.670;6.750;2023-10-31T02:42:35;9.90;99.90
60293;DHT22;52402;52.670;6.750;2023-10-31T02:45:01;9.90;99.90
60293;DHT22;52402;52.670;6.750;2023-10-31T02:47:26;9.80;99.90
60293;DHT22;52402;52.670;6.750;2023-10-31T02:49:52;9.80;99.90
60293;DHT22;52402;52.670;6.750;2023-10-31T02:52:17;9.80;99.90
60293;DHT22;52402;52.670;6.750;2023-10-31T02:54:43;9.80;99.90
60293;DHT22;52402;52.670;6.750;2023-10-31T02:57:09;9.80;99.90
60293;DHT22;52402;52.670;6.750;2023-10-31T02:59:34;9.70;99.90
60293;DHT22;52402;52.670;6.750;2023-10-31T03:02:01;9.70;99.90
60293;DHT22;52402;52.670;6.750;2023-10-31T03:04:26;9.70;99.90
60293;DHT22;52402;52.670;6.750;2023-10-31T03:06:52;9.70;99.90
60293;DHT22;52402;52.670;6.750;2023-10-31T03:09:17;9.70;99.90
60293;DHT22;52402;52.670;6.750;2023-10-31T03:11:43;9.70;99.90
60293;DHT22;52402;52.670;6.750;2023-10-31T03:14:09;9.70;99.90
60293;DHT22;52402;52.670;6.750;2023-10-31T03:16:34;9.70;99.90
60293;DHT22;52402;52.670;6.750;2023-10-31T03:19:00;9.70;99.90
60293;DHT22;52402;52.670;6.750;2023-10-31T03:21:26;9.80;99.90
60293;DHT22;52402;52.670;6.750;2023-10-31T03:23:51;9.70;99.90
60293;DHT22;52402;52.670;6.750;2023-10-31T03:26:19;9.80;99.90
60293;DHT22;52402;52.670;6.750;2023-10-31T03:28:45;9.80;99.90
60293;DHT22;52402;52.670;6.750;2023-10-31T03:31:11;9.80;99.90
60293;DHT22;52402;52.670;6.750;2023-10-31T03:33:37;9.80;99.90
60293;DHT22;52402;52.670;6.750;2023-10-31T03:36:03;9.80;99.90
60293;DHT22;52402;52.670;6.750;2023-10-31T03:38:29;9.80;99.90
60293;DHT22;52402;52.670;6.750;2023-10-31T03:40:55;9.80;99.90
60293;DHT22;52402;52.670;6.750;2023-10-31T03:43:20;9.80;99.90
60293;DHT22;52402;52.670;6.750;2023-10-31T03:45:46;9.90;99.90
60293;DHT22;52402;52.670;6.750;2023-10-31T03:48:13;9.90;99.90
60293;DHT22;52402;52.670;6.750;2023-10-31T03:50:39;9.90;99.90
60293;DHT22;52402;52.670;6.750;2023-10-31T03:53:04;9.90;99.90
60293;DHT22;52402;52.670;6.750;2023-10-31T03:55:30;9.90;99.90
60293;DHT22;52402;52.670;6.750;2023-10-31T03:57:56;9.90;99.90
60293;DHT22;52402;52.670;6.750;2023-10-31T04:00:21;9.90;99.90
60293;DHT22;52402;52.670;6.750;2023-10-31T04:02:47;9.90;99.90
60293;DHT22;52402;52.670;6.750;2023-10-31T04:05:13;9.90;99.90
60293;DHT22;52402;52.670;6.750;2023-10-31T04:07:38;9.90;99.90
60293;DHT22;52402;52.670;6.750;2023-10-31T04:10:04;9.90;99.90
60293;DHT22;52402;52.670;6.750;2023-10-31T04:12:31;9.90;99.90
60293;DHT22;52402;52.670;6.750;2023-10-31T04:14:57;10.00;99.90
60293;DHT22;52402;52.670;6.750;2023-10-31T04:17:23;10.00;99.90
60293;DHT22;52402;52.670;6.750;2023-10-31T04:19:48;10.00;99.90
60293;DHT22;52402;52.670;6.750;2023-10-31T04:22:14;9.90;99.90
60293;DHT22;52402;52.670;6.750;2023-10-31T04:24:39;10.00;99.90
60293;DHT22;52402;52.670;6.750;2023-10-31T04:27:05;9.90;99.90
60293;DHT22;52402;52.670;6.750;2023-10-31T04:29:32;9.90;99.90
60293;DHT22;52402;52.670;6.750;2023-10-31T04:31:58;9.90;99.90
60293;DHT22;52402;52.670;6.750;2023-10-31T04:34:23;9.90;99.90
60293;DHT22;52402;52.670;6.750;2023-10-31T04:36:52;9.90;99.90
60293;DHT22;52402;52.670;6.750;2023-10-31T04:39:18;9.90;99.90
60293;DHT22;52402;52.670;6.750;2023-10-31T04:41:43;9.90;99.90
60293;DHT22;52402;52.670;6.750;2023-10-31T04:44:09;9.80;99.90
60293;DHT22;52402;52.670;6.750;2023-10-31T04:46:34;9.90;99.90
60293;DHT22;52402;52.670;6.750;2023-10-31T04:49:00;9.90;99.90
60293;DHT22;52402;52.670;6.750;2023-10-31T04:51:25;9.80;99.90
60293;DHT22;52402;52.670;6.750;2023-10-31T04:53:51;9.80;99.90
60293;DHT22;52402;52.670;6.750;2023-10-31T04:56:17;9.80;99.90
60293;DHT22;52402;52.670;6.750;2023-10-31T04:58:43;9.80;99.90
60293;DHT22;52402;52.670;6.750;2023-10-31T05:01:13;9.80;99.90
60293;DHT22;52402;52.670;6.750;2023-10-31T05:03:39;9.80;99.90
60293;DHT22;52402;52.670;6.750;2023-10-31T05:06:05;9.80;99.90
60293;DHT22;52402;52.670;6.750;2023-10-31T05:08:31;9.80;99.90
60293;DHT22;52402;52.670;6.750;2023-10-31T05:10:58;9.80;99.90
60293;DHT22;52402;52.670;6.750;2023-10-31T05:13:24;9.80;99.90
60293;DHT22;52402;52.670;6.750;2023-10-31T05:15:50;9.80;99.90
60293;DHT22;52402;52.670;6.750;2023-10-31T05:18:16;9.70;99.90
60293;DHT22;52402;52.670;6.750;2023-10-31T05:20:41;9.80;99.90
60293;DHT22;52402;52.670;6.750;2023-10-31T05:23:10;9.80;99.90
60293;DHT22;52402;52.670;6.750;2023-10-31T05:25:35;9.70;99.90
60293;DHT22;52402;52.670;6.750;2023-10-31T05:28:02;9.70;99.90
60293;DHT22;52402;52.670;6.750;2023-10-31T05:30:28;9.70;99.90
60293;DHT22;52402;52.670;6.750;2023-10-31T05:32:53;9.70;99.90
60293;DHT22;52402;52.670;6.750;2023-10-31T05:35:19;9.70;99.90
60293;DHT22;52402;52.670;6.750;2023-10-31T05:37:46;9.70;99.90
60293;DHT22;52402;52.670;6.750;2023-10-31T05:40:12;9.70;99.90
60293;DHT22;52402;52.670;6.750;2023-10-31T05:42:38;9.70;99.90
60293;DHT22;52402;52.670;6.750;2023-10-31T05:45:05;9.70;99.90
60293;DHT22;52402;52.670;6.750;2023-10-31T05:47:30;9.70;99.90
60293;DHT22;52402;52.670;6.750;2023-10-31T05:49:56;9.70;99.90
60293;DHT22;52402;52.670;6.750;2023-10-31T05:52:22;9.70;99.90
60293;DHT22;52402;52.670;6.750;2023-10-31T05:54:48;9.70;99.90
60293;DHT22;52402;52.670;6.750;2023-10-31T05:57:14;9.70;99.90
60293;DHT22;52402;52.670;6.750;2023-10-31T05:59:39;9.70;99.90
60293;DHT22;52402;52.670;6.750;2023-10-31T06:02:05;9.70;99.90
60293;DHT22;52402;52.670;6.750;2023-10-31T06:04:30;9.70;99.90
60293;DHT22;52402;52.670;6.750;2023-10-31T06:06:56;9.70;99.90
60293;DHT22;52402;52.670;6.750;2023-10-31T06:09:21;9.70;99.90
60293;DHT22;52402;52.670;6.750;2023-10-31T06:11:47;9.70;99.90
60293;DHT22;52402;52.670;6.750;2023-10-31T06:14:13;9.70;99.90
60293;DHT22;52402;52.670;6.750;2023-10-31T06:17:02;9.70;99.90
60293;DHT22;52402;52.670;6.750;2023-10-31T06:19:28;9.70;99.90
60293;DHT22;52402;52.670;6.750;2023-10-31T06:21:53;9.70;99.90
60293;DHT22;52402;52.670;6.750;2023-10-31T06:24:22;9.70;99.90
60293;DHT22;52402;52.670;6.750;2023-10-31T06:26:48;9.70;99.90
60293;DHT22;52402;52.670;6.750;2023-10-31T06:29:16;9.70;99.90
60293;DHT22;52402;52.670;6.750;2023-10-31T06:31:42;9.70;99.90
60293;DHT22;52402;52.670;6.750;2023-10-31T06:34:07;9.60;99.90
60293;DHT22;52402;52.670;6.750;2023-10-31T06:36:33;9.60;99.90
60293;DHT22;52402;52.670;6.750;2023-10-31T06:38:59;9.60;99.90
60293;DHT22;52402;52.670;6.750;2023-10-31T06:41:24;9.60;99.90
60293;DHT22;52402;52.670;6.750;2023-10-31T06:43:50;9.60;99.90
60293;DHT22;52402;52.670;6.750;2023-10-31T06:46:15;9.60;99.90
60293;DHT22;52402;52.670;6.750;2023-10-31T06:48:41;9.60;99.90
60293;DHT22;52402;52.670;6.750;2023-10-31T06:51:07;9.60;99.90
60293;DHT22;52402;52.670;6.750;2023-10-31T06:53:32;9.60;99.90
60293;DHT22;52402;52.670;6.750;2023-10-31T06:56:01;9.70;99.90
60293;DHT22;52402;52.670;6.750;2023-10-31T06:58:26;9.60;99.90
60293;DHT22;52402;52.670;6.750;2023-10-31T07:00:52;9.70;99.90
60293;DHT22;52402;52.670;6.750;2023-10-31T07:03:18;9.70;99.90
60293;DHT22;52402;52.670;6.750;2023-10-31T07:05:43;9.70;99.90
60293;DHT22;52402;52.670;6.750;2023-10-31T07:08:09;9.70;99.90
60293;DHT22;52402;52.670;6.750;2023-10-31T07:10:35;9.70;99.90
60293;DHT22;52402;52.670;6.750;2023-10-31T07:13:00;9.70;99.90
60293;DHT22;52402;52.670;6.750;2023-10-31T07:15:26;9.70;99.90
60293;DHT22;52402;52.670;6.750;2023-10-31T07:17:51;9.80;99.90
60293;DHT22;52402;52.670;6.750;2023-10-31T07:20:17;9.80;99.90
60293;DHT22;52402;52.670;6.750;2023-10-31T07:22:43;9.80;99.90
60293;DHT22;52402;52.670;6.750;2023-10-31T07:25:09;9.80;99.90
60293;DHT22;52402;52.670;6.750;2023-10-31T07:27:34;9.80;99.90
60293;DHT22;52402;52.670;6.750;2023-10-31T07:30:01;9.90;99.90
60293;DHT22;52402;52.670;6.750;2023-10-31T07:32:27;9.90;99.90
60293;DHT22;52402;52.670;6.750;2023-10-31T07:34:53;9.90;99.90
60293;DHT22;52402;52.670;6.750;2023-10-31T07:37:18;9.90;99.90
60293;DHT22;52402;52.670;6.750;2023-10-31T07:39:44;10.00;99.90
60293;DHT22;52402;52.670;6.750;2023-10-31T07:42:09;10.00;99.90
60293;DHT22;52402;52.670;6.750;2023-10-31T07:44:35;10.00;99.90
60293;DHT22;52402;52.670;6.750;2023-10-31T07:47:01;10.00;99.90
60293;DHT22;52402;52.670;6.750;2023-10-31T07:49:27;10.10;99.90
60293;DHT22;52402;52.670;6.750;2023-10-31T07:51:52;10.10;99.90
60293;DHT22;52402;52.670;6.750;2023-10-31T07:54:18;10.10;99.90
60293;DHT22;52402;52.670;6.750;2023-10-31T07:56:44;10.10;99.90
60293;DHT22;52402;52.670;6.750;2023-10-31T07:59:10;10.20;99.90
60293;DHT22;52402;52.670;6.750;2023-10-31T08:01:37;10.20;99.90
60293;DHT22;52402;52.670;6.750;2023-10-31T08:04:02;10.20;99.90
60293;DHT22;52402;52.670;6.750;2023-10-31T08:06:28;10.20;99.90
60293;DHT22;52402;52.670;6.750;2023-10-31T08:08:54;10.20;99.90
60293;DHT22;52402;52.670;6.750;2023-10-31T08:11:20;10.30;99.90
60293;DHT22;52402;52.670;6.750;2023-10-31T08:13:45;10.30;99.90
60293;DHT22;52402;52.670;6.750;2023-10-31T08:16:17;10.30;99.90
60293;DHT22;52402;52.670;6.750;2023-10-31T08:18:44;10.40;99.90
60293;DHT22;52402;52.670;6.750;2023-10-31T08:21:11;10.50;99.90
60293;DHT22;52402;52.670;6.750;2023-10-31T08:23:37;10.60;99.90
60293;DHT22;52402;52.670;6.750;2023-10-31T08:26:03;10.70;99.90
60293;DHT22;52402;52.670;6.750;2023-10-31T08:28:28;10.70;99.90
60293;DHT22;52402;52.670;6.750;2023-10-31T08:30:55;10.80;99.90
60293;DHT22;52402;52.670;6.750;2023-10-31T08:33:21;10.90;99.90
60293;DHT22;52402;52.670;6.750;2023-10-31T08:35:46;11.00;99.90
60293;DHT22;52402;52.670;6.750;2023-10-31T08:38:13;11.00;99.90
60293;DHT22;52402;52.670;6.750;2023-10-31T08:40:38;11.10;99.90
60293;DHT22;52402;52.670;6.750;2023-10-31T08:43:04;11.20;99.90
60293;DHT22;52402;52.670;6.750;2023-10-31T08:45:32;11.20;99.90
60293;DHT22;52402;52.670;6.750;2023-10-31T08:47:58;11.20;99.90
60293;DHT22;52402;52.670;6.750;2023-10-31T08:50:24;11.20;99.90
60293;DHT22;52402;52.670;6.750;2023-10-31T08:52:50;11.30;99.90
60293;DHT22;52402;52.670;6.750;2023-10-31T08:55:15;11.20;99.90
60293;DHT22;52402;52.670;6.750;2023-10-31T08:57:41;11.30;99.90
60293;DHT22;52402;52.670;6.750;2023-10-31T09:00:07;11.30;99.90
60293;DHT22;52402;52.670;6.750;2023-10-31T09:02:34;11.40;99.90
60293;DHT22;52402;52.670;6.750;2023-10-31T09:04:59;11.40;99.90
60293;DHT22;52402;52.670;6.750;2023-10-31T09:07:25;11.40;99.90
60293;DHT22;52402;52.670;6.750;2023-10-31T09:09:50;11.40;99.90
60293;DHT22;52402;52.670;6.750;2023-10-31T09:12:16;11.40;99.90
60293;DHT22;52402;52.670;6.750;2023-10-31T09:14:42;11.50;99.90
60293;DHT22;52402;52.670;6.750;2023-10-31T09:17:07;11.50;99.90
60293;DHT22;52402;52.670;6.750;2023-10-31T09:19:33;11.50;99.90
60293;DHT22;52402;52.670;6.750;2023-10-31T09:21:59;11.50;99.90
60293;DHT22;52402;52.670;6.750;2023-10-31T09:24:24;11.60;99.90
60293;DHT22;52402;52.670;6.750;2023-10-31T09:26:50;11.70;99.90
60293;DHT22;52402;52.670;6.750;2023-10-31T09:29:15;11.70;99.90
60293;DHT22;52402;52.670;6.750;2023-10-31T09:31:41;11.80;99.90
60293;DHT22;52402;52.670;6.750;2023-10-31T09:34:07;11.80;99.90
60293;DHT22;52402;52.670;6.750;2023-10-31T09:36:33;11.80;99.90
60293;DHT22;52402;52.670;6.750;2023-10-31T09:39:00;11.80;99.90
60293;DHT22;52402;52.670;6.750;2023-10-31T09:41:25;11.90;99.90
60293;DHT22;52402;52.670;6.750;2023-10-31T09:43:52;11.90;99.90
60293;DHT22;52402;52.670;6.750;2023-10-31T09:46:18;12.00;99.90
60293;DHT22;52402;52.670;6.750;2023-10-31T09:48:44;11.90;99.90
60293;DHT22;52402;52.670;6.750;2023-10-31T09:51:10;11.90;99.90
60293;DHT22;52402;52.670;6.750;2023-10-31T09:53:41;12.00;99.90
60293;DHT22;52402;52.670;6.750;2023-10-31T09:56:09;11.90;99.90
60293;DHT22;52402;52.670;6.750;2023-10-31T09:58:35;11.90;99.90
60293;DHT22;52402;52.670;6.750;2023-10-31T10:01:01;11.90;99.90
60293;DHT22;52402;52.670;6.750;2023-10-31T10:03:27;11.80;99.90
60293;DHT22;52402;52.670;6.750;2023-10-31T10:05:53;11.90;99.90
60293;DHT22;52402;52.670;6.750;2023-10-31T10:08:22;11.90;99.90
60293;DHT22;52402;52.670;6.750;2023-10-31T10:10:49;11.90;99.90
60293;DHT22;52402;52.670;6.750;2023-10-31T10:13:18;12.00;99.90
60293;DHT22;52402;52.670;6.750;2023-10-31T10:15:48;12.00;99.90
60293;DHT22;52402;52.670;6.750;2023-10-31T10:18:28;12.10;99.90
60293;DHT22;52402;52.670;6.750;2023-10-31T10:20:59;12.20;99.90
60293;DHT22;52402;52.670;6.750;2023-10-31T10:23:25;12.30;99.90
60293;DHT22;52402;52.670;6.750;2023-10-31T10:25:52;12.40;99.90
60293;DHT22;52402;52.670;6.750;2023-10-31T10:28:18;12.40;99.90
60293;DHT22;52402;52.670;6.750;2023-10-31T10:30:47;12.50;99.90
60293;DHT22;52402;52.670;6.750;2023-10-31T10:33:14;12.50;99.90
60293;DHT22;52402;52.670;6.750;2023-10-31T10:35:40;12.50;99.90
60293;DHT22;52402;52.670;6.750;2023-10-31T10:38:16;12.50;99.90
60293;DHT22;52402;52.670;6.750;2023-10-31T10:40:43;12.30;99.90
60293;DHT22;52402;52.670;6.750;2023-10-31T10:45:38;11.60;99.90
60293;DHT22;52402;52.670;6.750;2023-10-31T10:48:11;11.50;99.90
60293;DHT22;52402;52.670;6.750;2023-10-31T10:50:41;11.30;99.90
60293;DHT22;52402;52.670;6.750;2023-10-31T10:53:23;11.30;99.90
60293;DHT22;52402;52.670;6.750;2023-10-31T10:55:55;11.20;99.90
60293;DHT22;52402;52.670;6.750;2023-10-31T10:58:55;11.20;99.90
60293;DHT22;52402;52.670;6.750;2023-10-31T11:01:23;11.20;99.90
60293;DHT22;52402;52.670;6.750;2023-10-31T11:03:50;11.30;99.90
60293;DHT22;52402;52.670;6.750;2023-10-31T11:06:19;11.50;99.90
60293;DHT22;52402;52.670;6.750;2023-10-31T11:08:45;11.60;99.90
60293;DHT22;52402;52.670;6.750;2023-10-31T11:11:11;11.70;99.90
60293;DHT22;52402;52.670;6.750;2023-10-31T11:13:37;11.70;99.90
60293;DHT22;52402;52.670;6.750;2023-10-31T11:16:09;11.80;99.90
60293;DHT22;52402;52.670;6.750;2023-10-31T11:18:36;11.80;99.90
60293;DHT22;52402;52.670;6.750;2023-10-31T11:21:01;11.90;99.90
60293;DHT22;52402;52.670;6.750;2023-10-31T11:23:27;12.00;99.90
60293;DHT22;52402;52.670;6.750;2023-10-31T11:25:53;12.10;99.90
60293;DHT22;52402;52.670;6.750;2023-10-31T11:28:20;12.20;99.90
60293;DHT22;52402;52.670;6.750;2023-10-31T11:30:50;12.20;99.90
60293;DHT22;52402;52.670;6.750;2023-10-31T11:33:19;12.10;99.90
60293;DHT22;52402;52.670;6.750;2023-10-31T11:35:50;12.10;99.90
60293;DHT22;52402;52.670;6.750;2023-10-31T11:38:16;11.90;99.90
60293;DHT22;52402;52.670;6.750;2023-10-31T11:40:57;11.80;99.90
60293;DHT22;52402;52.670;6.750;2023-10-31T11:43:23;11.80;99.90
60293;DHT22;52402;52.670;6.750;2023-10-31T11:45:49;11.70;99.90
60293;DHT22;52402;52.670;6.750;2023-10-31T11:48:15;11.70;99.90
60293;DHT22;52402;52.670;6.750;2023-10-31T11:50:41;11.70;99.90
60293;DHT22;52402;52.670;6.750;2023-10-31T11:53:14;11.70;99.90
60293;DHT22;52402;52.670;6.750;2023-10-31T11:55:42;11.70;99.90
60293;DHT22;52402;52.670;6.750;2023-10-31T12:00:48;11.80;99.90
60293;DHT22;52402;52.670;6.750;2023-10-31T12:03:21;11.90;99.90
60293;DHT22;52402;52.670;6.750;2023-10-31T12:05:57;11.90;99.90
60293;DHT22;52402;52.670;6.750;2023-10-31T12:08:39;11.90;99.90
60293;DHT22;52402;52.670;6.750;2023-10-31T12:11:15;12.00;99.90
60293;DHT22;52402;52.670;6.750;2023-10-31T12:14:01;12.10;99.90
60293;DHT22;52402;52.670;6.750;2023-10-31T12:16:33;12.00;99.90
60293;DHT22;52402;52.670;6.750;2023-10-31T12:18:59;12.10;99.90
60293;DHT22;52402;52.670;6.750;2023-10-31T12:21:42;12.20;99.90
60293;DHT22;52402;52.670;6.750;2023-10-31T12:24:14;12.20;99.90
60293;DHT22;52402;52.670;6.750;2023-10-31T12:26:40;12.20;99.90
60293;DHT22;52402;52.670;6.750;2023-10-31T12:29:13;12.20;99.90
60293;DHT22;52402;52.670;6.750;2023-10-31T12:34:09;12.20;99.90
60293;DHT22;52402;52.670;6.750;2023-10-31T12:36:36;12.30;99.90
60293;DHT22;52402;52.670;6.750;2023-10-31T12:39:03;12.40;99.90
60293;DHT22;52402;52.670;6.750;2023-10-31T12:41:29;12.40;99.90
60293;DHT22;52402;52.670;6.750;2023-10-31T12:43:55;12.50;99.90
60293;DHT22;52402;52.670;6.750;2023-10-31T12:46:25;12.60;99.90
60293;DHT22;52402;52.670;6.750;2023-10-31T12:48:51;12.70;99.90
60293;DHT22;52402;52.670;6.750;2023-10-31T12:51:17;12.90;99.90
60293;DHT22;52402;52.670;6.750;2023-10-31T12:53:48;13.00;99.90
60293;DHT22;52402;52.670;6.750;2023-10-31T12:56:41;13.00;99.90
60293;DHT22;52402;52.670;6.750;2023-10-31T12:59:08;12.90;99.90
60293;DHT22;52402;52.670;6.750;2023-10-31T13:01:42;12.90;99.90
60293;DHT22;52402;52.670;6.750;2023-10-31T13:04:08;12.90;99.90
60293;DHT22;52402;52.670;6.750;2023-10-31T13:06:35;12.80;99.90
60293;DHT22;52402;52.670;6.750;2023-10-31T13:09:01;12.70;99.90
60293;DHT22;52402;52.670;6.750;2023-10-31T13:11:31;12.60;99.90
60293;DHT22;52402;52.670;6.750;2023-10-31T13:13:57;12.50;99.90
60293;DHT22;52402;52.670;6.750;2023-10-31T13:16:24;12.40;99.90
60293;DHT22;52402;52.670;6.750;2023-10-31T13:18:53;12.40;99.90
60293;DHT22;52402;52.670;6.750;2023-10-31T13:21:19;12.40;99.90
60293;DHT22;52402;52.670;6.750;2023-10-31T13:23:44;12.40;99.90
60293;DHT22;52402;52.670;6.750;2023-10-31T13:26:11;12.30;99.90
60293;DHT22;52402;52.670;6.750;2023-10-31T13:28:37;12.30;99.90
60293;DHT22;52402;52.670;6.750;2023-10-31T13:31:05;12.20;99.90
60293;DHT22;52402;52.670;6.750;2023-10-31T13:33:32;12.20;99.90
60293;DHT22;52402;52.670;6.750;2023-10-31T13:35:58;12.10;99.90
60293;DHT22;52402;52.670;6.750;2023-10-31T13:38:23;12.10;99.90
60293;DHT22;52402;52.670;6.750;2023-10-31T13:40:49;12.10;99.90
60293;DHT22;52402;52.670;6.750;2023-10-31T13:43:14;12.20;99.90
60293;DHT22;52402;52.670;6.750;2023-10-31T13:45:40;12.20;99.90
60293;DHT22;52402;52.670;6.750;2023-10-31T13:48:05;12.20;99.90
60293;DHT22;52402;52.670;6.750;2023-10-31T13:50:31;12.20;99.90
60293;DHT22;52402;52.670;6.750;2023-10-31T13:52:56;12.20;99.90
60293;DHT22;52402;52.670;6.750;2023-10-31T13:55:22;12.10;99.90
60293;DHT22;52402;52.670;6.750;2023-10-31T13:57:49;12.10;99.90
60293;DHT22;52402;52.670;6.750;2023-10-31T14:00:15;12.00;99.90
60293;DHT22;52402;52.670;6.750;2023-10-31T14:02:41;12.00;99.90
60293;DHT22;52402;52.670;6.750;2023-10-31T14:05:07;11.90;99.90
60293;DHT22;52402;52.670;6.750;2023-10-31T14:07:32;11.90;99.90
60293;DHT22;52402;52.670;6.750;2023-10-31T14:09:58;11.90;99.90
60293;DHT22;52402;52.670;6.750;2023-10-31T14:12:24;11.90;99.90
60293;DHT22;52402;52.670;6.750;2023-10-31T14:14:51;11.90;99.90
60293;DHT22;52402;52.670;6.750;2023-10-31T14:17:17;11.80;99.90
60293;DHT22;52402;52.670;6.750;2023-10-31T14:19:43;11.80;99.90
60293;DHT22;52402;52.670;6.750;2023-10-31T14:22:12;11.70;99.90
60293;DHT22;52402;52.670;6.750;2023-10-31T14:24:39;11.60;99.90
60293;DHT22;52402;52.670;6.750;2023-10-31T14:27:04;11.50;99.90
60293;DHT22;52402;52.670;6.750;2023-10-31T14:29:30;11.40;99.90
60293;DHT22;52402;52.670;6.750;2023-10-31T14:31:56;11.40;99.90
60293;DHT22;52402;52.670;6.750;2023-10-31T14:34:23;11.30;99.90
60293;DHT22;52402;52.670;6.750;2023-10-31T14:36:48;11.30;99.90
60293;DHT22;52402;52.670;6.750;2023-10-31T14:39:15;11.20;99.90
60293;DHT22;52402;52.670;6.750;2023-10-31T14:41:40;11.20;99.90
60293;DHT22;52402;52.670;6.750;2023-10-31T14:44:06;11.10;99.90
60293;DHT22;52402;52.670;6.750;2023-10-31T14:46:33;11.10;99.90
60293;DHT22;52402;52.670;6.750;2023-10-31T14:48:59;11.10;99.90
60293;DHT22;52402;52.670;6.750;2023-10-31T14:51:25;11.00;99.90
60293;DHT22;52402;52.670;6.750;2023-10-31T14:53:51;11.00;99.90
60293;DHT22;52402;52.670;6.750;2023-10-31T14:56:17;11.00;99.90
60293;DHT22;52402;52.670;6.750;2023-10-31T14:58:42;11.00;99.90
60293;DHT22;52402;52.670;6.750;2023-10-31T15:01:08;10.90;99.90
60293;DHT22;52402;52.670;6.750;2023-10-31T15:03:34;10.90;99.90
60293;DHT22;52402;52.670;6.750;2023-10-31T15:05:59;10.80;99.90
60293;DHT22;52402;52.670;6.750;2023-10-31T15:08:25;10.80;99.90
60293;DHT22;52402;52.670;6.750;2023-10-31T15:10:52;10.80;99.90
60293;DHT22;52402;52.670;6.750;2023-10-31T15:13:18;10.70;99.90
60293;DHT22;52402;52.670;6.750;2023-10-31T15:15:43;10.70;99.90
60293;DHT22;52402;52.670;6.750;2023-10-31T15:18:09;10.70;99.90
60293;DHT22;52402;52.670;6.750;2023-10-31T15:20:34;10.60;99.90
60293;DHT22;52402;52.670;6.750;2023-10-31T15:23:00;10.60;99.90
60293;DHT22;52402;52.670;6.750;2023-10-31T15:25:26;10.60;99.90
60293;DHT22;52402;52.670;6.750;2023-10-31T15:27:51;10.60;99.90
60293;DHT22;52402;52.670;6.750;2023-10-31T15:30:17;10.50;99.90
60293;DHT22;52402;52.670;6.750;2023-10-31T15:32:43;10.50;99.90
60293;DHT22;52402;52.670;6.750;2023-10-31T15:35:09;10.40;99.90
60293;DHT22;52402;52.670;6.750;2023-10-31T15:37:35;10.40;99.90
60293;DHT22;52402;52.670;6.750;2023-10-31T15:40:01;10.30;99.90